Time;durP1;ratioP1;P1;durP2;ratioP2;P2;SDS_P1;SDS_P2;PMS_P1;PMS_P2;Temp;Humidity;BMP_temperature;BMP_pressure;BME280_temperature;BME280_humidity;BME280_pressure;Samples;Min_cycle;Max_cycle;Signal;HPM_P1;HPM_P2
2022/01/14 00:00:48;;;;;;;;;;;;;;;18.01;62.24;102290.06;5047261;28;1651;-37
2022/01/14 00:03:19;;;;;;;;;;;;;;;18.06;62.12;102278.13;5043699;28;1987;-36
2022/01/14 00:05:45;;;;;;;;;;;;;;;18.10;61.97;102281.44;5050178;28;1948;-36
2022/01/14 00:08:14;;;;;;;;;;;;;;;18.11;61.45;102272.47;5041171;28;1980;-36
2022/01/14 00:10:48;;;;;;;;;;;;;;;18.12;61.37;102262.63;5050391;28;1809;-36
2022/01/14 00:13:38;;;;;;;;;;;;;;;18.06;62.04;102279.91;5041266;28;1839;-37
2022/01/14 00:16:06;;;;;;;;;;;;;;;18.02;61.70;102276.56;5046246;28;1961;-36
2022/01/14 00:18:45;;;;;;;;;;;;;;;17.95;61.74;102263.66;5050864;28;1986;-36
2022/01/14 00:21:12;;;;;;;;;;;;;;;17.93;61.66;102265.56;5050512;28;1634;-37
2022/01/14 00:23:42;;;;;;;;;;;;;;;17.88;62.03;102272.03;5050825;28;1754;-37
2022/01/14 00:31:51;;;;;;;;;;;;;;;17.68;62.53;102256.25;5050465;28;1416;-38
2022/01/14 00:34:18;;;;;;;;;;;;;;;17.68;62.38;102257.13;5050221;28;1609;-38
2022/01/14 00:37:00;;;;;;;;;;;;;;;17.68;62.36;102250.91;5041526;28;1971;-38
2022/01/14 00:39:30;;;;;;;;;;;;;;;17.76;62.07;102264.69;5037617;28;1382;-38
2022/01/14 00:42:06;;;;;;;;;;;;;;;17.71;62.23;102264.13;5039370;28;1831;-38
2022/01/14 00:44:33;;;;;;;;;;;;;;;17.64;62.48;102258.25;5036137;28;2032;-38
2022/01/14 00:47:11;;;;;;;;;;;;;;;17.57;62.38;102248.03;5043047;28;2005;-37
2022/01/14 00:49:37;;;;;;;;;;;;;;;17.61;62.62;102253.09;5047004;28;1373;-37
2022/01/14 00:52:05;;;;;;;;;;;;;;;17.56;62.61;102257.00;5042191;28;1146;-37
2022/01/14 00:54:35;;;;;;;;;;;;;;;17.54;62.64;102265.09;5048390;28;1774;-38
2022/01/14 00:57:14;;;;;;;;;;;;;;;17.55;62.67;102261.50;5049467;28;1602;-38
2022/01/14 00:59:40;;;;;;;;;;;;;;;17.47;62.74;102248.56;5037274;28;1941;-37
2022/01/14 01:02:10;;;;;;;;;;;;;;;17.49;62.81;102252.00;5051396;28;1837;-37
2022/01/14 01:04:39;;;;;;;;;;;;;;;17.41;62.74;102232.88;5044196;28;1722;-37
2022/01/14 01:07:08;;;;;;;;;;;;;;;17.37;62.73;102231.31;5045835;28;1971;-38
2022/01/14 01:09:35;;;;;;;;;;;;;;;17.31;63.19;102231.69;5051637;28;1793;-36
2022/01/14 01:12:13;;;;;;;;;;;;;;;17.28;62.82;102226.50;5052075;28;1638;-37
2022/01/14 01:14:44;;;;;;;;;;;;;;;17.21;62.76;102220.66;5047286;28;1777;-37
2022/01/14 01:17:15;;;;;;;;;;;;;;;17.23;63.12;102201.84;5049107;28;1750;-37
2022/01/14 01:19:42;;;;;;;;;;;;;;;17.23;62.69;102210.75;5046888;28;1670;-37
2022/01/14 01:22:11;;;;;;;;;;;;;;;17.22;63.05;102200.13;5041326;28;1100;-36
2022/01/14 01:24:37;;;;;;;;;;;;;;;17.21;62.59;102207.28;5032878;28;1225;-38
2022/01/14 01:27:09;;;;;;;;;;;;;;;17.17;62.73;102203.06;5051883;28;1838;-37
2022/01/14 01:29:52;;;;;;;;;;;;;;;17.19;62.27;102184.25;5039113;28;1975;-37
2022/01/14 01:32:25;;;;;;;;;;;;;;;17.10;62.78;102170.47;5054259;28;1770;-37
2022/01/14 01:34:55;;;;;;;;;;;;;;;17.13;62.84;102174.81;5051285;28;1646;-36
2022/01/14 01:37:21;;;;;;;;;;;;;;;17.15;62.64;102172.00;5046562;28;1451;-36
2022/01/14 01:39:49;;;;;;;;;;;;;;;17.10;63.04;102173.16;5052032;28;1575;-37
2022/01/14 01:42:19;;;;;;;;;;;;;;;17.11;62.68;102168.69;5052676;28;1963;-37
2022/01/14 01:44:49;;;;;;;;;;;;;;;17.15;62.72;102159.53;5039450;28;1749;-37
2022/01/14 01:47:15;;;;;;;;;;;;;;;17.13;63.03;102155.19;5053171;28;1614;-37
2022/01/14 01:49:55;;;;;;;;;;;;;;;17.06;63.09;102147.53;5044971;28;1903;-37
2022/01/14 01:52:24;;;;;;;;;;;;;;;17.03;62.93;102144.19;5042292;28;1290;-37
2022/01/14 01:54:51;;;;;;;;;;;;;;;17.04;62.64;102138.75;5036568;28;1866;-37
2022/01/14 01:57:18;;;;;;;;;;;;;;;17.02;62.41;102135.31;5042776;28;1921;-37
2022/01/14 02:00:07;;;;;;;;;;;;;;;17.07;62.38;102135.06;5046161;28;1911;-36
2022/01/14 02:02:37;;;;;;;;;;;;;;;16.98;63.00;102107.06;5036581;28;1858;-37
2022/01/14 02:05:12;;;;;;;;;;;;;;;17.02;62.61;102113.94;5039561;28;1711;-37
2022/01/14 02:07:45;;;;;;;;;;;;;;;17.01;62.39;102101.53;5044361;28;1909;-38
2022/01/14 02:10:15;;;;;;;;;;;;;;;16.99;62.44;102100.78;5047413;28;1799;-37
2022/01/14 02:12:49;;;;;;;;;;;;;;;16.99;62.53;102098.09;5047292;28;1657;-37
2022/01/14 02:15:43;;;;;;;;;;;;;;;16.93;62.28;102093.13;5049003;28;1480;-37
2022/01/14 02:18:39;;;;;;;;;;;;;;;16.97;61.89;102110.69;5052447;28;1618;-37
2022/01/14 02:24:06;;;;;;;;;;;;;;;17.03;62.44;102088.94;5048216;28;1815;-37
2022/01/14 02:26:33;;;;;;;;;;;;;;;17.12;62.03;102084.84;5048196;28;1769;-36
2022/01/14 02:29:03;;;;;;;;;;;;;;;17.27;61.12;102069.72;5044198;28;1909;-37
2022/01/14 02:31:30;;;;;;;;;;;;;;;17.36;61.27;102069.16;5050724;28;1150;-36
2022/01/14 02:33:57;;;;;;;;;;;;;;;17.39;60.24;102066.31;5048084;28;1789;-36
2022/01/14 02:36:28;;;;;;;;;;;;;;;17.39;60.14;102063.63;5046857;28;1819;-36
2022/01/14 02:38:54;;;;;;;;;;;;;;;17.39;60.56;102055.63;5045794;28;1886;-37
2022/01/14 02:41:23;;;;;;;;;;;;;;;17.38;60.01;102039.66;5043722;28;1758;-36
2022/01/14 02:43:50;;;;;;;;;;;;;;;17.37;60.06;102025.44;5050776;28;1953;-37
2022/01/14 02:46:19;;;;;;;;;;;;;;;17.43;59.93;102048.28;5055214;28;2044;-36
2022/01/14 02:48:48;;;;;;;;;;;;;;;17.45;60.00;102036.53;5051290;28;1906;-37
2022/01/14 02:51:19;;;;;;;;;;;;;;;17.41;60.38;102040.34;5043595;28;1797;-36
2022/01/14 02:53:59;;;;;;;;;;;;;;;17.39;60.12;102036.91;5048853;28;1619;-36
2022/01/14 02:56:31;;;;;;;;;;;;;;;17.39;59.83;102028.88;5035413;28;1820;-37
2022/01/14 02:59:01;;;;;;;;;;;;;;;17.35;60.58;102035.38;5047453;28;1684;-37
2022/01/14 03:01:28;;;;;;;;;;;;;;;17.31;60.40;102020.47;5151469;23;3630;-36
2022/01/14 03:04:00;;;;;;;;;;;;;;;17.46;60.29;102030.19;5064217;28;1995;-36
2022/01/14 03:06:28;;;;;;;;;;;;;;;17.60;60.25;102026.66;5059607;28;1609;-36
2022/01/14 03:09:01;;;;;;;;;;;;;;;17.72;60.06;102021.50;5054786;28;1906;-36
2022/01/14 03:11:30;;;;;;;;;;;;;;;17.62;59.90;102019.41;5065098;28;1406;-36
2022/01/14 03:14:00;;;;;;;;;;;;;;;17.45;60.58;102000.91;5072631;28;1789;-37
2022/01/14 03:16:39;;;;;;;;;;;;;;;17.41;60.70;102002.91;5061181;28;1092;-36
2022/01/14 03:19:15;;;;;;;;;;;;;;;17.41;60.71;102008.25;5058048;28;1580;-37
2022/01/14 03:21:43;;;;;;;;;;;;;;;17.36;60.73;101994.28;5055357;28;1331;-36
2022/01/14 03:24:19;;;;;;;;;;;;;;;17.32;61.19;101986.56;5056855;28;1574;-36
2022/01/14 03:26:51;;;;;;;;;;;;;;;17.33;60.76;101998.97;5064694;28;1323;-36
2022/01/14 03:29:21;;;;;;;;;;;;;;;17.32;60.72;101989.25;5063721;28;1910;-36
2022/01/14 03:31:49;;;;;;;;;;;;;;;17.31;60.98;101999.06;5066168;28;1059;-35
2022/01/14 03:34:16;;;;;;;;;;;;;;;17.34;61.11;101998.03;5066700;28;1690;-36
2022/01/14 03:36:43;;;;;;;;;;;;;;;17.34;60.83;101998.88;5060229;28;1807;-37
2022/01/14 03:39:12;;;;;;;;;;;;;;;17.30;61.10;101990.19;5063921;28;1785;-37
2022/01/14 03:41:42;;;;;;;;;;;;;;;17.28;61.11;101985.88;5059023;28;1594;-36
2022/01/14 03:44:11;;;;;;;;;;;;;;;17.24;61.03;101977.19;5065327;28;1940;-36
2022/01/14 03:46:41;;;;;;;;;;;;;;;17.27;61.11;101979.69;5068887;28;1806;-36
2022/01/14 03:49:09;;;;;;;;;;;;;;;17.23;61.57;101977.28;5071659;28;1905;-36
2022/01/14 03:51:38;;;;;;;;;;;;;;;17.22;61.18;101975.56;5062454;28;1756;-37
2022/01/14 03:54:07;;;;;;;;;;;;;;;17.18;61.65;101961.53;5060095;28;1456;-36
2022/01/14 03:56:36;;;;;;;;;;;;;;;17.17;61.55;101958.94;5071835;28;1840;-36
2022/01/14 03:59:12;;;;;;;;;;;;;;;17.14;61.10;101970.69;5071860;28;1775;-37
2022/01/14 04:01:40;;;;;;;;;;;;;;;17.23;61.22;101956.78;5053643;28;1402;-35
2022/01/14 04:04:16;;;;;;;;;;;;;;;17.35;60.68;101949.81;5059736;28;1777;-36
2022/01/14 04:06:45;;;;;;;;;;;;;;;17.52;60.08;101950.56;5066751;28;1602;-36
2022/01/14 04:09:14;;;;;;;;;;;;;;;17.59;59.75;101944.72;5069530;28;1910;-37
2022/01/14 04:11:43;;;;;;;;;;;;;;;17.74;59.25;101950.91;5067204;28;1590;-36
2022/01/14 04:17:05;;;;;;;;;;;;;;;17.80;59.00;101939.78;5053528;28;1223;-38
2022/01/14 04:19:31;;;;;;;;;;;;;;;17.86;58.36;101935.91;5073375;28;1103;-37
2022/01/14 04:22:01;;;;;;;;;;;;;;;17.85;58.73;101931.53;5061002;28;1548;-37
2022/01/14 04:24:28;;;;;;;;;;;;;;;17.83;58.97;101931.63;5070759;28;2046;-37
2022/01/14 04:26:55;;;;;;;;;;;;;;;17.86;58.77;101928.72;5068725;28;2128;-36
2022/01/14 04:29:27;;;;;;;;;;;;;;;17.87;58.63;101918.91;5060302;28;1909;-37
2022/01/14 04:31:56;;;;;;;;;;;;;;;17.85;58.99;101919.00;5071323;28;1610;-40
2022/01/14 04:34:25;;;;;;;;;;;;;;;17.85;58.55;101919.00;5069087;28;1749;-36
2022/01/14 04:36:54;;;;;;;;;;;;;;;17.78;59.00;101916.78;5066795;28;1808;-35
2022/01/14 04:39:23;;;;;;;;;;;;;;;17.64;59.32;101920.34;5058045;28;1535;-37
2022/01/14 04:41:52;;;;;;;;;;;;;;;17.60;59.38;101924.19;5057139;28;1883;-37
2022/01/14 04:44:20;;;;;;;;;;;;;;;17.49;59.58;101920.38;5061361;28;1617;-37
2022/01/14 04:47:14;;;;;;;;;;;;;;;17.49;59.69;101920.38;5070999;28;1031;-37
2022/01/14 04:49:43;;;;;;;;;;;;;;;17.51;59.67;101917.63;5064407;28;1915;-36
2022/01/14 04:52:19;;;;;;;;;;;;;;;17.45;59.71;101910.84;5068299;28;1585;-37
2022/01/14 04:54:48;;;;;;;;;;;;;;;17.39;59.93;101913.91;5057548;28;1090;-36
2022/01/14 04:57:16;;;;;;;;;;;;;;;17.31;59.84;101921.53;5054777;28;1276;-37
2022/01/14 04:59:44;;;;;;;;;;;;;;;17.32;60.13;101899.19;5066724;28;1902;-37
2022/01/14 05:02:14;;;;;;;;;;;;;;;17.29;60.56;101900.25;5062105;28;1721;-37
2022/01/14 05:04:43;;;;;;;;;;;;;;;17.22;60.65;101895.38;5067229;28;1844;-38
2022/01/14 05:07:23;;;;;;;;;;;;;;;17.22;60.20;101884.69;5068438;28;1095;-36
2022/01/14 05:09:58;;;;;;;;;;;;;;;17.12;60.81;101888.91;5056923;28;1902;-36
2022/01/14 05:12:31;;;;;;;;;;;;;;;17.13;60.48;101887.94;5054885;28;1406;-37
2022/01/14 05:15:01;;;;;;;;;;;;;;;17.12;60.40;101868.38;5059087;28;1141;-37
2022/01/14 05:17:33;;;;;;;;;;;;;;;17.10;60.38;101881.81;5057723;28;1627;-36
2022/01/14 05:19:59;;;;;;;;;;;;;;;17.10;60.73;101881.81;5054828;28;1665;-37
2022/01/14 05:22:33;;;;;;;;;;;;;;;17.07;60.75;101876.69;5054960;28;1354;-36
2022/01/14 05:25:01;;;;;;;;;;;;;;;17.14;60.41;101870.94;5058888;28;1618;-36
2022/01/14 05:27:30;;;;;;;;;;;;;;;17.13;60.29;101862.06;5070871;28;1900;-36
2022/01/14 05:29:59;;;;;;;;;;;;;;;17.05;60.87;101872.38;5070673;28;1901;-37
2022/01/14 05:32:27;;;;;;;;;;;;;;;17.00;60.63;101864.66;5058796;28;1559;-36
2022/01/14 05:35:09;;;;;;;;;;;;;;;17.04;60.44;101862.66;5061881;28;1599;-36
2022/01/14 05:37:41;;;;;;;;;;;;;;;16.97;60.46;101858.63;5067199;28;1512;-36
2022/01/14 05:40:08;;;;;;;;;;;;;;;17.00;60.80;101859.28;5066645;28;1839;-35
2022/01/14 05:42:38;;;;;;;;;;;;;;;16.98;60.80;101871.03;5060156;28;1099;-36
2022/01/14 05:45:06;;;;;;;;;;;;;;;17.01;60.73;101861.03;5069605;28;2049;-36
2022/01/14 05:47:32;;;;;;;;;;;;;;;16.99;60.22;101862.94;5060108;28;1997;-36
2022/01/14 05:50:03;;;;;;;;;;;;;;;17.01;60.68;101866.38;5061387;28;1910;-37
2022/01/14 05:52:37;;;;;;;;;;;;;;;16.95;60.45;101861.41;5057645;28;1525;-36
2022/01/14 05:55:10;;;;;;;;;;;;;;;17.01;60.74;101866.38;5061617;28;1083;-36
2022/01/14 05:57:51;;;;;;;;;;;;;;;16.92;60.25;101855.41;5059862;28;1394;-36
2022/01/14 06:00:19;;;;;;;;;;;;;;;17.04;59.47;101849.28;5073350;28;1930;-36
2022/01/14 06:02:46;;;;;;;;;;;;;;;17.56;58.72;101861.13;5073215;28;1467;-36
2022/01/14 06:05:13;;;;;;;;;;;;;;;17.96;57.47;101832.63;5072422;28;1579;-36
2022/01/14 06:07:41;;;;;;;;;;;;;;;18.25;57.15;101835.19;5067072;28;1485;-37
2022/01/14 06:10:22;;;;;;;;;;;;;;;18.34;56.46;101810.44;5070669;28;1901;-38
2022/01/14 06:12:50;;;;;;;;;;;;;;;18.48;56.37;101806.81;5067881;28;1501;-36
2022/01/14 06:15:20;;;;;;;;;;;;;;;18.61;56.74;101801.47;5065519;28;1629;-36
2022/01/14 06:17:49;;;;;;;;;;;;;;;18.72;57.34;101808.72;5070133;28;1883;-36
2022/01/14 06:20:19;;;;;;;;;;;;;;;18.91;59.26;101777.03;5067502;28;1379;-36
2022/01/14 06:22:45;;;;;;;;;;;;;;;18.99;56.78;101795.25;5072203;28;1557;-36
2022/01/14 06:25:17;;;;;;;;;;;;;;;18.95;58.20;101781.19;5070370;28;1481;-36
2022/01/14 06:27:47;;;;;;;;;;;;;;;19.09;57.92;101790.91;5068257;28;1388;-35
2022/01/14 06:30:15;;;;;;;;;;;;;;;19.22;57.21;101788.22;5066300;28;1976;-36
2022/01/14 06:32:42;;;;;;;;;;;;;;;19.37;56.47;101783.53;5056850;28;1403;-36
2022/01/14 06:35:09;;;;;;;;;;;;;;;19.30;56.35;101774.22;5067536;28;1284;-35
2022/01/14 06:37:36;;;;;;;;;;;;;;;19.33;58.10;101782.91;5074363;28;1938;-35
2022/01/14 06:40:04;;;;;;;;;;;;;;;19.29;57.75;101776.06;5070523;28;1599;-36
2022/01/14 06:42:31;;;;;;;;;;;;;;;19.26;58.33;101797.75;5070116;28;1087;-36
2022/01/14 06:45:00;;;;;;;;;;;;;;;19.34;58.53;101763.19;5063647;28;1681;-36
2022/01/14 06:47:30;;;;;;;;;;;;;;;19.28;58.54;101772.53;5070622;28;1800;-36
2022/01/14 06:49:57;;;;;;;;;;;;;;;19.22;59.03;101770.28;5069075;28;1905;-36
2022/01/14 06:52:24;;;;;;;;;;;;;;;19.04;58.84;101756.41;5062091;28;1721;-37
2022/01/14 06:55:00;;;;;;;;;;;;;;;18.95;59.83;101751.72;5063125;28;1520;-37
2022/01/14 06:57:30;;;;;;;;;;;;;;;18.94;60.53;101754.50;5064506;28;1511;-37
2022/01/14 07:00:00;;;;;;;;;;;;;;;19.05;60.62;101747.38;5066596;28;1833;-36
2022/01/14 07:05:28;;;;;;;;;;;;;;;18.67;61.69;101761.69;5060549;28;1637;-38
2022/01/14 07:07:57;;;;;;;;;;;;;;;18.63;61.45;101757.53;5064634;28;1401;-38
2022/01/14 07:10:26;;;;;;;;;;;;;;;18.59;61.49;101745.31;5069571;28;1981;-37
2022/01/14 07:12:57;;;;;;;;;;;;;;;18.51;62.03;101736.13;5065922;28;1639;-38
2022/01/14 07:15:25;;;;;;;;;;;;;;;18.45;61.77;101738.25;5071988;28;1419;-37
2022/01/14 07:17:56;;;;;;;;;;;;;;;18.40;61.36;101735.06;5064236;28;1935;-37
2022/01/14 07:20:23;;;;;;;;;;;;;;;18.36;61.39;101730.00;5064684;28;1518;-38
2022/01/14 07:22:49;;;;;;;;;;;;;;;18.32;60.98;101715.13;5067690;28;1546;-38
2022/01/14 07:25:28;;;;;;;;;;;;;;;18.28;61.39;101712.69;5068296;28;1450;-38
2022/01/14 07:27:56;;;;;;;;;;;;;;;18.32;61.07;101704.41;5065427;28;1447;-38
2022/01/14 07:30:29;;;;;;;;;;;;;;;18.29;60.99;101706.34;5060602;28;1975;-38
2022/01/14 07:32:56;;;;;;;;;;;;;;;18.27;60.83;101692.19;5061031;28;1525;-38
2022/01/14 07:35:32;;;;;;;;;;;;;;;18.21;60.61;101700.66;5059839;28;1616;-37
2022/01/14 07:37:59;;;;;;;;;;;;;;;18.13;60.68;101678.94;5065571;28;1654;-37
2022/01/14 07:40:28;;;;;;;;;;;;;;;18.10;60.47;101684.50;5066085;28;1587;-39
2022/01/14 07:42:59;;;;;;;;;;;;;;;18.10;60.75;101687.16;5064707;28;1740;-38
2022/01/14 07:45:29;;;;;;;;;;;;;;;18.07;60.41;101671.34;5066685;28;1764;-39
2022/01/14 07:47:56;;;;;;;;;;;;;;;18.18;60.47;101692.00;5063185;28;1327;-40
2022/01/14 07:50:30;;;;;;;;;;;;;;;18.24;61.04;101687.09;5066934;28;1979;-39
2022/01/14 07:53:00;;;;;;;;;;;;;;;18.42;60.57;101681.38;5068234;28;1328;-36
2022/01/14 07:55:29;;;;;;;;;;;;;;;18.42;60.28;101692.97;5062200;28;1259;-38
2022/01/14 07:57:56;;;;;;;;;;;;;;;18.40;60.06;101686.84;5066588;28;1723;-39
2022/01/14 08:00:40;;;;;;;;;;;;;;;18.43;60.57;101696.47;5065488;28;1541;-37
2022/01/14 08:03:21;;;;;;;;;;;;;;;18.43;60.63;101696.47;5063563;28;1551;-37
2022/01/14 08:05:54;;;;;;;;;;;;;;;18.47;60.47;101697.97;5061093;28;1623;-38
2022/01/14 08:08:21;;;;;;;;;;;;;;;18.61;60.38;101707.72;5064965;28;1589;-36
2022/01/14 08:10:51;;;;;;;;;;;;;;;18.55;59.16;101694.75;5064742;28;1973;-37
2022/01/14 08:13:20;;;;;;;;;;;;;;;18.55;59.91;101711.66;5069364;28;1932;-38
2022/01/14 08:15:50;;;;;;;;;;;;;;;18.32;61.01;101702.59;5055751;28;1832;-37
2022/01/14 08:18:17;;;;;;;;;;;;;;;14.23;56.67;101716.94;5069599;28;1704;-37
2022/01/14 08:20:46;;;;;;;;;;;;;;;16.33;58.84;101697.88;5071098;28;1772;-36
2022/01/14 08:23:18;;;;;;;;;;;;;;;17.49;55.31;101708.25;5070776;28;1606;-37
2022/01/14 08:25:45;;;;;;;;;;;;;;;17.93;53.67;101679.47;5065436;28;1570;-37
2022/01/14 08:28:15;;;;;;;;;;;;;;;18.20;54.01;101698.94;5066035;28;1123;-38
2022/01/14 08:30:50;;;;;;;;;;;;;;;18.28;54.27;101691.25;5062328;28;1901;-37
2022/01/14 08:33:19;;;;;;;;;;;;;;;18.36;54.96;101679.13;5065034;28;1962;-37
2022/01/14 08:35:47;;;;;;;;;;;;;;;18.42;56.04;101678.69;5055995;28;2046;-36
2022/01/14 08:38:21;;;;;;;;;;;;;;;18.45;56.19;101657.91;5058824;28;2009;-37
2022/01/14 08:40:49;;;;;;;;;;;;;;;18.50;55.94;101665.59;5061648;28;1355;-37
2022/01/14 08:43:17;;;;;;;;;;;;;;;18.53;56.30;101662.72;5063049;28;1672;-37
2022/01/14 08:45:45;;;;;;;;;;;;;;;18.56;57.24;101670.53;5070347;28;1752;-37
2022/01/14 08:48:11;;;;;;;;;;;;;;;18.58;56.61;101657.91;5069168;28;1902;-37
2022/01/14 08:50:40;;;;;;;;;;;;;;;18.74;55.62;101641.56;5068093;28;1902;-37
2022/01/14 08:53:08;;;;;;;;;;;;;;;18.80;56.17;101649.19;5059740;28;1916;-36
2022/01/14 08:55:41;;;;;;;;;;;;;;;18.74;56.72;101646.91;5067878;28;1521;-37
2022/01/14 08:58:09;;;;;;;;;;;;;;;18.83;56.13;101640.03;5063765;28;1625;-37
2022/01/14 09:00:36;;;;;;;;;;;;;;;18.85;56.24;101632.75;5066407;28;1612;-37
2022/01/14 09:03:05;;;;;;;;;;;;;;;18.88;56.51;101627.19;5065216;28;1681;-37
2022/01/14 09:05:34;;;;;;;;;;;;;;;18.92;57.70;101631.34;5068206;28;1505;-37
2022/01/14 09:08:02;;;;;;;;;;;;;;;19.04;56.30;101618.84;5064415;28;1507;-37
2022/01/14 09:10:30;;;;;;;;;;;;;;;18.95;56.76;101601.59;5063992;28;1898;-37
2022/01/14 09:13:01;;;;;;;;;;;;;;;19.10;56.51;101596.06;5069808;28;1749;-36
2022/01/14 09:15:28;;;;;;;;;;;;;;;18.97;58.33;101593.47;5065067;28;1506;-36
2022/01/14 09:17:54;;;;;;;;;;;;;;;18.95;57.40;101590.88;5059762;28;1905;-36
2022/01/14 09:20:23;;;;;;;;;;;;;;;18.90;56.52;101587.72;5072098;28;1886;-37
2022/01/14 09:22:56;;;;;;;;;;;;;;;18.85;56.68;101584.50;5063013;28;1431;-37
2022/01/14 09:25:24;;;;;;;;;;;;;;;18.80;57.25;101570.59;5072459;28;1598;-36
2022/01/14 09:28:01;;;;;;;;;;;;;;;18.79;57.20;101574.22;5070454;28;1902;-37
2022/01/14 09:30:34;;;;;;;;;;;;;;;18.78;57.86;101554.63;5059897;28;1975;-36
2022/01/14 09:33:03;;;;;;;;;;;;;;;18.79;57.00;101547.44;5058859;28;2049;-36
2022/01/14 09:35:32;;;;;;;;;;;;;;;18.75;57.52;101541.44;5067148;28;1662;-35
2022/01/14 09:37:59;;;;;;;;;;;;;;;18.81;57.51;101557.09;5072559;28;1839;-37
2022/01/14 09:40:27;;;;;;;;;;;;;;;18.76;58.53;101526.19;5070118;28;1452;-37
2022/01/14 09:43:00;;;;;;;;;;;;;;;18.74;57.86;101528.16;5064718;28;1829;-36
2022/01/14 09:45:29;;;;;;;;;;;;;;;18.71;57.80;101517.69;5071574;28;1075;-37
2022/01/14 09:47:57;;;;;;;;;;;;;;;18.71;58.23;101509.63;5072016;28;1957;-38
2022/01/14 09:50:25;;;;;;;;;;;;;;;18.67;58.06;101509.00;5072525;28;1988;-37
2022/01/14 09:52:54;;;;;;;;;;;;;;;18.61;57.74;101488.03;5072484;28;1813;-37
2022/01/14 09:55:21;;;;;;;;;;;;;;;18.60;57.73;101489.00;5059275;28;1006;-37
2022/01/14 09:57:52;;;;;;;;;;;;;;;18.60;57.86;101489.88;5062010;28;1637;-37
2022/01/14 10:00:19;;;;;;;;;;;;;;;18.61;56.70;101486.22;5065377;28;1459;-36
2022/01/14 10:02:47;;;;;;;;;;;;;;;18.60;57.66;101479.16;5072809;28;1530;-36
2022/01/14 10:05:31;;;;;;;;;;;;;;;18.60;57.60;101471.13;5068011;28;1798;-37
2022/01/14 10:08:18;;;;;;;;;;;;;;;18.52;57.66;101453.91;5066617;28;1110;-36
2022/01/14 10:10:47;;;;;;;;;;;;;;;18.54;57.81;101447.44;5070476;28;1913;-37
2022/01/14 10:13:15;;;;;;;;;;;;;;;18.56;56.76;101450.03;5059623;28;1784;-35
2022/01/14 10:16:06;;;;;;;;;;;;;;;18.62;56.67;101429.00;5069257;28;1562;-36
2022/01/14 10:18:47;;;;;;;;;;;;;;;18.68;56.58;101423.16;5059077;28;1868;-34
2022/01/14 10:21:17;;;;;;;;;;;;;;;18.68;56.46;101415.13;5064002;28;1960;-37
2022/01/14 10:23:47;;;;;;;;;;;;;;;18.71;56.45;101421.22;5073517;28;1784;-36
2022/01/14 10:26:17;;;;;;;;;;;;;;;18.63;56.61;101403.91;5068943;28;1881;-36
2022/01/14 10:29:07;;;;;;;;;;;;;;;18.63;57.22;101405.75;5069321;28;1835;-37
2022/01/14 10:31:37;;;;;;;;;;;;;;;18.66;56.78;101408.16;5075507;28;1972;-37
2022/01/14 10:34:15;;;;;;;;;;;;;;;18.58;56.88;101395.38;5061518;28;1667;-36
2022/01/14 10:36:43;;;;;;;;;;;;;;;18.62;56.92;101404.00;5070953;28;1514;-35
2022/01/14 10:39:24;;;;;;;;;;;;;;;18.69;56.07;101391.88;5065067;28;1589;-36
2022/01/14 10:41:52;;;;;;;;;;;;;;;18.63;56.74;101381.63;5065181;28;1930;-36
2022/01/14 10:44:28;;;;;;;;;;;;;;;18.66;56.14;101371.53;5065807;28;1662;-37
2022/01/14 10:47:10;;;;;;;;;;;;;;;18.67;57.19;101362.50;5056612;28;1657;-35
2022/01/14 10:49:42;;;;;;;;;;;;;;;18.66;56.80;101366.19;5063316;28;2374;-35
2022/01/14 10:52:33;;;;;;;;;;;;;;;18.65;57.07;101359.09;5068125;28;1902;-34
2022/01/14 10:55:05;;;;;;;;;;;;;;;18.67;56.96;101367.88;5068424;28;1062;-35
2022/01/14 10:57:34;;;;;;;;;;;;;;;18.63;56.46;101350.31;5062108;28;1847;-35
2022/01/14 11:00:14;;;;;;;;;;;;;;;18.58;57.04;101352.53;5066191;28;1804;-35
2022/01/14 11:02:42;;;;;;;;;;;;;;;18.60;56.65;101352.38;5055272;28;1370;-34
2022/01/14 11:05:10;;;;;;;;;;;;;;;18.63;57.26;101353.00;5069461;28;1848;-35
2022/01/14 11:07:38;;;;;;;;;;;;;;;18.62;57.74;101329.00;5072592;28;1793;-35
2022/01/14 11:10:20;;;;;;;;;;;;;;;18.61;57.32;101336.19;5067401;28;1753;-35
2022/01/14 11:12:48;;;;;;;;;;;;;;;18.65;57.82;101347.53;5062895;28;1304;-34
2022/01/14 11:15:15;;;;;;;;;;;;;;;18.63;58.00;101338.75;5065098;28;1633;-35
2022/01/14 11:17:55;;;;;;;;;;;;;;;18.66;56.87;101339.38;5067452;28;1371;-35
2022/01/14 11:20:28;;;;;;;;;;;;;;;18.62;56.79;101331.69;5059965;28;1935;-36
2022/01/14 11:25:54;;;;;;;;;;;;;;;18.66;57.41;101339.38;5066166;28;1471;-35
2022/01/14 11:28:27;;;;;;;;;;;;;;;18.71;57.48;101328.31;5058459;28;1930;-35
2022/01/14 11:30:57;;;;;;;;;;;;;;;18.71;57.01;101322.09;5064324;28;1972;-36
2022/01/14 11:33:40;;;;;;;;;;;;;;;18.72;57.06;101334.50;5065214;28;1736;-35
2022/01/14 11:36:13;;;;;;;;;;;;;;;18.63;56.85;101317.34;5062120;28;1956;-34
2022/01/14 11:38:41;;;;;;;;;;;;;;;18.60;58.00;101318.44;5068903;28;1701;-36
2022/01/14 11:41:17;;;;;;;;;;;;;;;18.62;57.50;101308.47;5064799;28;1898;-35
2022/01/14 11:43:52;;;;;;;;;;;;;;;18.61;57.59;101287.13;5060601;28;1710;-35
2022/01/14 11:46:43;;;;;;;;;;;;;;;18.60;57.98;101291.66;5074006;28;1079;-34
2022/01/14 11:49:26;;;;;;;;;;;;;;;18.59;57.79;101268.50;5061927;28;1916;-35
2022/01/14 11:52:00;;;;;;;;;;;;;;;18.64;57.64;101273.50;5054946;28;1932;-35
2022/01/14 11:54:37;;;;;;;;;;;;;;;18.68;57.41;101267.78;5068756;28;1942;-34
2022/01/14 11:57:10;;;;;;;;;;;;;;;18.68;57.24;101262.44;5068444;28;1561;-35
2022/01/14 11:59:47;;;;;;;;;;;;;;;18.66;57.18;101266.19;5059723;28;1420;-35
2022/01/14 12:02:36;;;;;;;;;;;;;;;18.65;57.82;101251.94;5054157;28;1908;-34
2022/01/14 12:05:20;;;;;;;;;;;;;;;18.66;57.85;101240.28;5069426;28;1796;-35
2022/01/14 12:08:15;;;;;;;;;;;;;;;18.68;58.15;101246.34;5055375;28;1681;-35
2022/01/14 12:10:48;;;;;;;;;;;;;;;18.65;57.83;101235.88;5058353;28;2042;-36
2022/01/14 12:13:49;;;;;;;;;;;;;;;18.66;58.21;101229.56;5062979;28;1945;-36
2022/01/14 12:16:46;;;;;;;;;;;;;;;18.61;58.07;101217.50;5063390;28;1083;-35
2022/01/14 12:19:21;;;;;;;;;;;;;;;18.59;58.36;101196.19;5061433;28;1370;-35
2022/01/14 12:21:58;;;;;;;;;;;;;;;18.62;57.60;101198.63;5060947;28;1749;-34
2022/01/14 12:24:35;;;;;;;;;;;;;;;18.59;57.82;101206.06;5061109;28;1815;-35
2022/01/14 12:27:21;;;;;;;;;;;;;;;18.59;57.75;101206.91;5060457;28;1582;-34
2022/01/14 12:30:05;;;;;;;;;;;;;;;18.57;57.74;101195.44;5059573;28;1780;-35
2022/01/14 12:35:41;;;;;;;;;;;;;;;18.61;58.30;101188.03;5059115;28;2946;-36
2022/01/14 12:38:12;;;;;;;;;;;;;;;18.66;58.19;101197.41;5056737;28;1817;-35
2022/01/14 12:40:40;;;;;;;;;;;;;;;18.63;58.45;101175.38;5069415;28;1342;-35
2022/01/14 12:43:10;;;;;;;;;;;;;;;18.67;57.41;101169.63;5061169;28;1588;-35
2022/01/14 12:45:41;;;;;;;;;;;;;;;18.68;58.09;101178.50;5070147;28;1052;-35
2022/01/14 12:48:29;;;;;;;;;;;;;;;18.65;57.97;101176.94;5065965;28;1784;-35
2022/01/14 12:51:11;;;;;;;;;;;;;;;18.68;57.22;101176.72;5061110;28;1969;-34
2022/01/14 12:53:52;;;;;;;;;;;;;;;18.68;57.59;101149.91;5069957;28;1780;-35
2022/01/14 12:56:19;;;;;;;;;;;;;;;18.64;58.01;101155.63;5077046;28;1373;-35
2022/01/14 12:58:53;;;;;;;;;;;;;;;18.62;57.42;101138.81;5070743;28;1039;-35
2022/01/14 13:01:25;;;;;;;;;;;;;;;18.64;57.94;101132.41;5068250;28;1388;-35
2022/01/14 13:04:08;;;;;;;;;;;;;;;18.62;57.67;101139.69;5063591;28;1923;-34
2022/01/14 13:07:07;;;;;;;;;;;;;;;18.58;58.28;101118.63;5071501;28;1773;-35
2022/01/14 13:09:34;;;;;;;;;;;;;;;18.59;57.91;101118.50;5063138;28;1550;-34
2022/01/14 13:12:04;;;;;;;;;;;;;;;18.62;58.36;101123.63;5071073;28;1983;-35
2022/01/14 13:14:36;;;;;;;;;;;;;;;18.59;58.09;101115.81;5074440;28;1748;-34
2022/01/14 13:17:14;;;;;;;;;;;;;;;18.56;57.96;101110.75;5065394;28;1773;-36
2022/01/14 13:19:42;;;;;;;;;;;;;;;18.52;58.42;101106.56;5067653;28;1506;-35
2022/01/14 13:22:15;;;;;;;;;;;;;;;18.47;58.22;101100.75;5068574;28;1084;-34
2022/01/14 13:24:43;;;;;;;;;;;;;;;18.46;57.91;101101.72;5066660;28;1133;-35
2022/01/14 13:27:24;;;;;;;;;;;;;;;18.45;57.90;101106.22;5068227;28;1633;-34
2022/01/14 13:29:58;;;;;;;;;;;;;;;18.40;57.77;101096.84;5066874;28;1717;-35
2022/01/14 13:32:26;;;;;;;;;;;;;;;18.42;58.26;101092.22;5058328;28;1906;-35